createdAt,value
2023-02-27T00:02:10.937Z,100.00
2023-02-27T00:04:41.255Z,100.00
2023-02-27T00:07:11.258Z,100.00
2023-02-27T00:09:42.538Z,100.00
2023-02-27T00:12:13.484Z,100.00
2023-02-27T00:14:43.399Z,100.00
2023-02-27T00:17:13.439Z,100.00
2023-02-27T00:19:44.106Z,100.00
2023-02-27T00:22:14.163Z,100.00
2023-02-27T00:24:45.345Z,100.00
2023-02-27T00:27:15.554Z,100.00
2023-02-27T00:29:45.388Z,100.00
2023-02-27T00:32:15.662Z,100.00
2023-02-27T00:34:45.479Z,100.00
2023-02-27T00:37:16.117Z,100.00
2023-02-27T00:39:47.654Z,100.00
2023-02-27T00:42:18.011Z,100.00
2023-02-27T00:44:49.325Z,100.00
2023-02-27T00:47:19.322Z,100.00
2023-02-27T00:49:49.059Z,100.00
2023-02-27T00:52:19.184Z,100.00
2023-02-27T00:54:50.670Z,100.00
2023-02-27T00:57:20.909Z,100.00
2023-02-27T00:59:50.615Z,100.00
2023-02-27T01:02:20.889Z,100.00
2023-02-27T01:04:50.770Z,100.00
2023-02-27T01:07:21.072Z,100.00
2023-02-27T01:09:52.268Z,100.00
2023-02-27T01:12:22.355Z,100.00
2023-02-27T01:14:52.134Z,100.00
2023-02-27T01:17:22.193Z,100.00
2023-02-27T01:19:52.177Z,100.00
2023-02-27T01:22:22.248Z,100.00
2023-02-27T01:24:55.240Z,100.00
2023-02-27T01:27:26.396Z,100.00
2023-02-27T01:29:56.281Z,100.00
2023-02-27T01:32:26.687Z,100.00
2023-02-27T01:34:56.590Z,100.00
2023-02-27T01:37:29.042Z,100.00
2023-02-27T01:40:00.260Z,100.00
2023-02-27T01:42:30.824Z,100.00
2023-02-27T01:45:07.821Z,100.00
2023-02-27T01:47:38.584Z,100.00
2023-02-27T01:50:09.211Z,100.00
2023-02-27T01:52:41.285Z,100.00
2023-02-27T01:55:14.396Z,100.00
2023-02-27T01:57:46.956Z,100.00
2023-02-27T02:00:18.094Z,100.00
2023-02-27T02:02:54.154Z,100.00
2023-02-27T02:05:24.888Z,100.00
2023-02-27T02:07:55.330Z,100.00
2023-02-27T02:10:27.370Z,100.00
2023-02-27T02:12:59.689Z,100.00
2023-02-27T02:15:33.111Z,100.00
2023-02-27T02:18:08.525Z,100.00
2023-02-27T02:21:06.731Z,100.00
2023-02-27T02:23:44.949Z,100.00
2023-02-27T02:26:31.017Z,100.00
2023-02-27T02:29:17.061Z,100.00
2023-02-27T02:32:05.431Z,100.00
2023-02-27T02:34:46.713Z,100.00
2023-02-27T02:37:31.281Z,100.00
2023-02-27T02:40:16.097Z,100.00
2023-02-27T02:42:50.909Z,100.00
2023-02-27T02:45:26.576Z,100.00
2023-02-27T02:48:02.349Z,100.00
2023-02-27T02:50:38.020Z,100.00
2023-02-27T02:53:12.296Z,100.00
2023-02-27T02:55:46.887Z,100.00
2023-02-27T02:58:20.612Z,100.00
2023-02-27T03:00:54.676Z,100.00
2023-02-27T03:03:27.937Z,100.00
2023-02-27T03:06:01.588Z,100.00
2023-02-27T03:08:33.371Z,100.00
2023-02-27T03:11:05.934Z,100.00
2023-02-27T03:13:39.255Z,100.00
2023-02-27T03:16:12.464Z,100.00
2023-02-27T03:18:44.934Z,100.00
2023-02-27T03:21:17.533Z,100.00
2023-02-27T03:23:49.330Z,100.00
2023-02-27T03:26:23.669Z,100.00
2023-02-27T03:28:56.730Z,100.00
2023-02-27T03:31:29.578Z,100.00
2023-02-27T03:34:01.741Z,100.00
2023-02-27T03:36:39.622Z,100.00
2023-02-27T03:39:14.457Z,100.00
2023-02-27T03:41:50.214Z,100.00
2023-02-27T03:44:49.221Z,100.00
2023-02-27T03:47:20.499Z,100.00
2023-02-27T03:49:52.381Z,100.00
2023-02-27T03:52:23.327Z,100.00
2023-02-27T03:54:56.871Z,100.00
2023-02-27T03:57:29.901Z,100.00
2023-02-27T03:59:59.801Z,100.00
2023-02-27T04:02:30.190Z,100.00
2023-02-27T04:05:00.321Z,100.00
2023-02-27T04:07:55.091Z,100.00
2023-02-27T04:10:42.607Z,100.00
2023-02-27T04:13:21.549Z,100.00
2023-02-27T04:16:01.298Z,100.00
2023-02-27T04:18:38.179Z,100.00
2023-02-27T04:21:09.794Z,100.00
2023-02-27T04:23:41.840Z,100.00
2023-02-27T04:26:18.792Z,100.00
2023-02-27T04:28:57.545Z,100.00
2023-02-27T04:31:31.544Z,100.00
2023-02-27T04:34:06.426Z,100.00
2023-02-27T04:36:38.613Z,100.00
2023-02-27T04:39:09.854Z,100.00
2023-02-27T04:41:41.938Z,100.00
2023-02-27T04:44:14.151Z,100.00
2023-02-27T04:46:45.423Z,100.00
2023-02-27T04:49:18.126Z,100.00
2023-02-27T04:51:52.659Z,100.00
2023-02-27T04:54:26.694Z,100.00
2023-02-27T04:56:58.434Z,100.00
2023-02-27T04:59:32.661Z,100.00
2023-02-27T05:02:04.673Z,100.00
2023-02-27T05:04:37.757Z,100.00
2023-02-27T05:07:10.029Z,100.00
2023-02-27T05:09:45.221Z,100.00
2023-02-27T05:12:18.377Z,100.00
2023-02-27T05:14:51.822Z,100.00
2023-02-27T05:17:23.731Z,100.00
2023-02-27T05:19:54.194Z,100.00
2023-02-27T05:22:27.795Z,100.00
2023-02-27T05:25:03.358Z,100.00
2023-02-27T05:27:36.276Z,100.00
2023-02-27T05:30:13.114Z,100.00
2023-02-27T05:32:45.096Z,100.00
2023-02-27T05:35:18.836Z,100.00
2023-02-27T05:37:51.967Z,100.00
2023-02-27T05:40:25.207Z,100.00
2023-02-27T05:42:59.840Z,100.00
2023-02-27T05:45:34.947Z,100.00
2023-02-27T05:48:06.491Z,100.00
2023-02-27T05:50:39.505Z,100.00
2023-02-27T05:53:11.232Z,100.00
2023-02-27T05:55:44.896Z,100.00
2023-02-27T05:58:18.646Z,100.00
2023-02-27T06:00:53.878Z,100.00
2023-02-27T06:03:24.225Z,100.00
2023-02-27T06:05:55.610Z,100.00
2023-02-27T06:08:25.885Z,100.00
2023-02-27T06:10:56.623Z,100.00
2023-02-27T06:13:27.892Z,100.00
2023-02-27T06:15:59.819Z,100.00
2023-02-27T06:18:29.881Z,100.00
2023-02-27T06:20:59.849Z,100.00
2023-02-27T06:23:29.670Z,100.00
2023-02-27T06:25:59.930Z,100.00
2023-02-27T06:28:30.338Z,100.00
2023-02-27T06:31:03.461Z,100.00
2023-02-27T06:33:33.622Z,100.00
2023-02-27T06:36:03.961Z,100.00
2023-02-27T06:38:34.411Z,100.00
2023-02-27T06:41:04.830Z,100.00
2023-02-27T06:43:36.945Z,100.00
2023-02-27T06:46:09.280Z,100.00
2023-02-27T06:48:39.124Z,100.00
2023-02-27T06:51:09.387Z,100.00
2023-02-27T06:53:39.230Z,100.00
2023-02-27T06:56:09.975Z,100.00
2023-02-27T06:58:40.057Z,100.00
2023-02-27T07:01:12.511Z,100.00
2023-02-27T07:03:43.690Z,100.00
2023-02-27T07:06:14.480Z,100.00
2023-02-27T07:08:54.009Z,100.00
2023-02-27T07:11:35.135Z,100.00
2023-02-27T07:14:05.065Z,100.00
2023-02-27T07:16:36.794Z,100.00
2023-02-27T07:19:08.677Z,100.00
2023-02-27T07:21:38.837Z,100.00
2023-02-27T07:24:13.818Z,100.00
2023-02-27T07:26:49.800Z,100.00
2023-02-27T07:29:19.955Z,100.00
2023-02-27T07:31:52.126Z,100.00
2023-02-27T07:34:22.026Z,100.00
2023-02-27T07:36:52.345Z,100.00
2023-02-27T07:39:22.130Z,100.00
2023-02-27T07:41:52.604Z,100.00
2023-02-27T07:44:23.681Z,100.00
2023-02-27T07:46:55.908Z,100.00
2023-02-27T07:49:26.344Z,100.00
2023-02-27T07:51:57.038Z,100.00
2023-02-27T07:54:28.010Z,100.00
2023-02-27T07:56:58.244Z,100.00
2023-02-27T07:59:28.403Z,100.00
2023-02-27T08:02:00.338Z,100.00
2023-02-27T08:04:30.651Z,100.00
2023-02-27T08:07:00.996Z,100.00
2023-02-27T08:09:31.285Z,100.00
2023-02-27T08:12:03.241Z,100.00
2023-02-27T08:14:33.158Z,100.00
2023-02-27T08:17:05.248Z,100.00
2023-02-27T08:19:35.668Z,100.00
2023-02-27T08:22:06.202Z,100.00
2023-02-27T08:24:36.011Z,100.00
2023-02-27T08:27:06.440Z,100.00
2023-02-27T08:29:36.550Z,100.00
2023-02-27T08:32:07.983Z,100.00
2023-02-27T08:34:38.019Z,100.00
2023-02-27T08:37:08.456Z,100.00
2023-02-27T08:39:38.262Z,100.00
2023-02-27T08:42:08.846Z,96.66
2023-02-27T08:44:38.991Z,92.72
2023-02-27T08:47:11.467Z,90.08
2023-02-27T08:49:42.169Z,87.29
2023-02-27T08:52:12.684Z,85.38
2023-02-27T08:54:42.623Z,85.34
2023-02-27T08:57:14.876Z,81.39
2023-02-27T08:59:44.752Z,80.48
2023-02-27T09:02:16.706Z,81.61
2023-02-27T09:04:46.696Z,83.33
2023-02-27T09:07:17.477Z,82.71
2023-02-27T09:09:49.739Z,81.22
2023-02-27T09:12:20.743Z,79.78
2023-02-27T09:14:50.834Z,81.41
2023-02-27T09:17:22.852Z,80.70
2023-02-27T09:19:52.837Z,79.11
2023-02-27T09:22:23.648Z,79.01
2023-02-27T09:24:54.113Z,78.58
2023-02-27T09:27:25.019Z,76.84
2023-02-27T09:29:56.683Z,75.19
2023-02-27T09:32:29.102Z,74.60
2023-02-27T09:34:59.656Z,74.42
2023-02-27T09:37:30.690Z,73.25
2023-02-27T09:40:01.054Z,73.70
2023-02-27T09:42:35.712Z,72.47
2023-02-27T09:45:08.056Z,71.85
2023-02-27T09:47:42.799Z,69.74
2023-02-27T09:50:26.957Z,68.50
2023-02-27T09:52:57.774Z,67.89
2023-02-27T09:55:32.316Z,68.92
2023-02-27T09:58:08.388Z,68.45
2023-02-27T10:00:46.337Z,68.57
2023-02-27T10:03:34.272Z,72.28
2023-02-27T10:06:30.551Z,69.46
2023-02-27T10:09:12.251Z,67.30
2023-02-27T10:11:51.699Z,67.81
2023-02-27T10:14:30.255Z,66.25
2023-02-27T10:17:01.647Z,66.49
2023-02-27T10:19:36.647Z,64.90
2023-02-27T10:22:09.894Z,64.82
2023-02-27T10:24:47.446Z,65.17
2023-02-27T10:27:30.350Z,65.18
2023-02-27T10:30:28.269Z,64.26
2023-02-27T10:33:04.613Z,64.52
2023-02-27T10:35:48.327Z,64.81
2023-02-27T10:38:22.996Z,64.18
2023-02-27T10:40:57.884Z,67.65
2023-02-27T10:43:34.546Z,68.13
2023-02-27T10:46:09.852Z,67.06
2023-02-27T10:48:40.710Z,66.08
2023-02-27T10:51:31.741Z,65.93
2023-02-27T10:54:33.354Z,68.94
2023-02-27T10:57:09.154Z,67.98
2023-02-27T10:59:40.920Z,67.04
2023-02-27T11:02:23.848Z,65.51
2023-02-27T11:04:55.545Z,65.64
2023-02-27T11:07:33.822Z,64.91
2023-02-27T11:10:06.060Z,67.40
2023-02-27T11:12:36.616Z,64.07
2023-02-27T11:15:24.129Z,66.20
2023-02-27T11:17:55.458Z,66.95
2023-02-27T11:20:36.842Z,65.72
2023-02-27T11:23:15.569Z,67.18
2023-02-27T11:25:45.687Z,66.83
2023-02-27T11:28:21.853Z,64.93
2023-02-27T11:31:03.785Z,66.67
2023-02-27T11:33:37.167Z,67.08
2023-02-27T11:36:07.787Z,66.32
2023-02-27T11:38:39.677Z,65.43
2023-02-27T11:41:11.406Z,64.59
2023-02-27T11:43:48.876Z,66.11
2023-02-27T11:46:45.421Z,66.95
2023-02-27T11:49:21.574Z,65.84
2023-02-27T11:51:56.269Z,66.64
2023-02-27T11:54:35.232Z,67.42
2023-02-27T11:57:06.652Z,68.13
2023-02-27T11:59:44.070Z,66.75
2023-02-27T12:02:19.375Z,66.99
2023-02-27T12:04:53.913Z,67.08
2023-02-27T12:07:26.915Z,68.00
2023-02-27T12:10:04.998Z,67.23
2023-02-27T12:12:38.679Z,68.28
2023-02-27T12:15:20.375Z,68.97
2023-02-27T12:17:52.295Z,67.66
2023-02-27T12:20:25.658Z,67.79
2023-02-27T12:22:56.719Z,69.33
2023-02-27T12:25:40.236Z,70.57
2023-02-27T12:28:27.678Z,70.39
2023-02-27T12:31:07.748Z,71.56
2023-02-27T12:33:41.163Z,70.05
2023-02-27T12:36:12.944Z,69.23
2023-02-27T12:38:43.643Z,70.24
2023-02-27T12:41:30.793Z,72.56
2023-02-27T12:44:05.900Z,69.83
2023-02-27T12:46:43.214Z,68.40
2023-02-27T12:49:21.830Z,69.91
2023-02-27T12:51:58.328Z,69.40
2023-02-27T12:54:37.012Z,70.04
2023-02-27T12:57:16.060Z,67.90
2023-02-27T12:59:52.767Z,65.10
2023-02-27T13:02:33.139Z,63.48
2023-02-27T13:05:09.982Z,62.91
2023-02-27T13:07:47.486Z,60.89
2023-02-27T13:10:20.365Z,60.83
2023-02-27T13:12:57.175Z,60.52
2023-02-27T13:15:32.896Z,61.20
2023-02-27T13:18:06.412Z,62.27
2023-02-27T13:20:41.269Z,65.38
2023-02-27T13:23:17.550Z,63.80
2023-02-27T13:25:53.271Z,64.08
2023-02-27T13:28:26.718Z,64.86
2023-02-27T13:31:03.744Z,65.62
2023-02-27T13:33:39.311Z,65.55
2023-02-27T13:36:13.690Z,65.37
2023-02-27T13:38:45.125Z,66.32
2023-02-27T13:41:46.404Z,67.92
2023-02-27T13:44:50.768Z,69.40
2023-02-27T13:47:41.492Z,69.07
2023-02-27T13:50:30.440Z,67.91
2023-02-27T13:53:11.047Z,69.31
2023-02-27T13:55:41.877Z,68.19
2023-02-27T13:58:17.387Z,66.51
2023-02-27T14:00:57.071Z,67.52
2023-02-27T14:03:30.543Z,71.04
2023-02-27T14:06:05.023Z,69.13
2023-02-27T14:08:40.234Z,69.20
2023-02-27T14:11:17.235Z,70.34
2023-02-27T14:14:13.899Z,71.38
2023-02-27T14:17:00.432Z,69.58
2023-02-27T14:19:45.334Z,71.22
2023-02-27T14:22:37.928Z,71.44
2023-02-27T14:25:28.682Z,70.48
2023-02-27T14:28:00.487Z,71.40
2023-02-27T14:30:32.945Z,72.83
2023-02-27T14:33:09.435Z,73.34
2023-02-27T14:35:40.080Z,73.01
2023-02-27T14:38:13.473Z,71.81
2023-02-27T14:40:50.892Z,72.02
2023-02-27T14:43:31.092Z,71.22
2023-02-27T14:46:07.560Z,73.40
2023-02-27T14:48:39.236Z,75.00
2023-02-27T14:51:09.363Z,74.24
2023-02-27T14:53:41.254Z,74.84
2023-02-27T14:56:19.644Z,73.11
2023-02-27T14:59:03.425Z,73.75
2023-02-27T15:01:38.097Z,74.09
2023-02-27T15:04:08.878Z,73.77
2023-02-27T15:06:45.996Z,72.44
2023-02-27T15:09:24.191Z,73.86
2023-02-27T15:12:03.586Z,72.63
2023-02-27T15:14:36.846Z,74.73
2023-02-27T15:17:16.670Z,74.14
2023-02-27T15:19:50.850Z,74.59
2023-02-27T15:22:37.633Z,73.49
2023-02-27T15:25:23.228Z,73.71
2023-02-27T15:27:54.967Z,76.25
2023-02-27T15:30:25.422Z,75.77
2023-02-27T15:32:55.980Z,75.44
2023-02-27T15:35:27.282Z,76.98
2023-02-27T15:37:58.507Z,76.77
2023-02-27T15:40:30.240Z,78.08
2023-02-27T15:43:01.999Z,77.31
2023-02-27T15:45:33.487Z,77.42
2023-02-27T15:48:03.590Z,79.94
2023-02-27T15:50:35.220Z,79.24
2023-02-27T15:53:06.353Z,79.85
2023-02-27T15:55:39.046Z,80.41
2023-02-27T15:58:17.415Z,80.13
2023-02-27T16:00:48.138Z,80.64
2023-02-27T16:03:23.453Z,80.70
2023-02-27T16:05:54.756Z,81.96
2023-02-27T16:08:27.704Z,82.09
2023-02-27T16:10:58.334Z,84.91
2023-02-27T16:13:44.453Z,84.95
2023-02-27T16:16:25.298Z,84.43
2023-02-27T16:18:56.293Z,86.87
2023-02-27T16:21:27.270Z,89.13
2023-02-27T16:24:17.263Z,91.55
2023-02-27T16:26:51.512Z,93.88
2023-02-27T16:29:24.222Z,95.94
2023-02-27T16:31:56.277Z,98.74
2023-02-27T16:34:39.027Z,99.90
2023-02-27T16:37:19.434Z,100.00
2023-02-27T16:39:50.692Z,100.00
2023-02-27T16:42:20.782Z,100.00
2023-02-27T16:44:52.341Z,100.00
2023-02-27T16:47:23.190Z,100.00
2023-02-27T16:49:52.977Z,100.00
2023-02-27T16:52:23.813Z,100.00
2023-02-27T16:54:53.513Z,100.00
2023-02-27T16:57:28.054Z,100.00
2023-02-27T16:59:59.303Z,100.00
2023-02-27T17:02:29.524Z,100.00
2023-02-27T17:04:59.310Z,100.00
2023-02-27T17:07:29.647Z,100.00
2023-02-27T17:10:00.555Z,100.00
2023-02-27T17:12:30.775Z,100.00
2023-02-27T17:15:02.187Z,100.00
2023-02-27T17:17:32.307Z,100.00
2023-02-27T17:20:03.851Z,100.00
2023-02-27T17:22:35.993Z,100.00
2023-02-27T17:25:05.969Z,100.00
2023-02-27T17:27:36.480Z,100.00
2023-02-27T17:30:08.766Z,100.00
2023-02-27T17:32:38.910Z,100.00
2023-02-27T17:35:09.498Z,100.00
2023-02-27T17:37:39.698Z,100.00
2023-02-27T17:40:09.936Z,100.00
2023-02-27T17:42:40.674Z,100.00
2023-02-27T17:45:12.729Z,100.00
2023-02-27T17:47:44.216Z,100.00
2023-02-27T17:50:14.362Z,100.00
2023-02-27T17:52:46.081Z,100.00
2023-02-27T17:55:16.986Z,100.00
2023-02-27T17:57:47.084Z,100.00
2023-02-27T18:00:18.816Z,100.00
2023-02-27T18:02:49.371Z,100.00
2023-02-27T18:05:19.997Z,100.00
2023-02-27T18:07:50.208Z,100.00
2023-02-27T18:10:20.420Z,100.00
2023-02-27T18:12:50.625Z,100.00
2023-02-27T18:15:21.856Z,100.00
2023-02-27T18:17:52.310Z,100.00
2023-02-27T18:20:22.128Z,100.00
2023-02-27T18:22:52.532Z,100.00
2023-02-27T18:25:23.820Z,100.00
2023-02-27T18:27:55.952Z,100.00
2023-02-27T18:30:30.832Z,100.00
2023-02-27T18:33:02.156Z,100.00
2023-02-27T18:35:32.186Z,100.00
2023-02-27T18:38:03.992Z,100.00
2023-02-27T18:40:34.314Z,100.00
2023-02-27T18:43:05.197Z,100.00
2023-02-27T18:45:36.782Z,100.00
2023-02-27T18:48:07.625Z,100.00
2023-02-27T18:50:37.614Z,100.00
2023-02-27T18:53:07.861Z,100.00
2023-02-27T18:55:37.756Z,100.00
2023-02-27T18:58:08.307Z,100.00
2023-02-27T19:00:40.001Z,100.00
2023-02-27T19:03:10.280Z,100.00
2023-02-27T19:05:42.026Z,100.00
2023-02-27T19:08:12.334Z,100.00
2023-02-27T19:10:42.775Z,100.00
2023-02-27T19:13:14.052Z,100.00
2023-02-27T19:15:45.415Z,100.00
2023-02-27T19:18:15.648Z,100.00
2023-02-27T19:20:45.420Z,100.00
2023-02-27T19:23:15.951Z,100.00
2023-02-27T19:25:48.044Z,100.00
2023-02-27T19:28:19.462Z,100.00
2023-02-27T19:30:50.654Z,100.00
2023-02-27T19:33:20.884Z,100.00
2023-02-27T19:35:50.611Z,100.00
2023-02-27T19:38:21.107Z,100.00
2023-02-27T19:40:51.047Z,100.00
2023-02-27T19:43:23.522Z,100.00
2023-02-27T19:45:56.678Z,100.00
2023-02-27T19:48:27.074Z,100.00
2023-02-27T19:50:57.517Z,100.00
2023-02-27T19:53:27.858Z,100.00
2023-02-27T19:56:00.843Z,100.00
2023-02-27T19:58:31.263Z,100.00
2023-02-27T20:01:02.573Z,100.00
2023-02-27T20:03:32.943Z,100.00
2023-02-27T20:06:06.822Z,100.00
2023-02-27T20:08:38.705Z,100.00
2023-02-27T20:11:12.008Z,100.00
2023-02-27T20:13:45.241Z,100.00
2023-02-27T20:16:23.058Z,100.00
2023-02-27T20:18:58.084Z,100.00
2023-02-27T20:21:32.218Z,100.00
2023-02-27T20:24:04.186Z,100.00
2023-02-27T20:26:34.895Z,100.00
2023-02-27T20:29:07.427Z,100.00
2023-02-27T20:31:40.140Z,100.00
2023-02-27T20:34:13.354Z,100.00
2023-02-27T20:36:44.818Z,100.00
2023-02-27T20:39:17.684Z,100.00
2023-02-27T20:41:48.608Z,100.00
2023-02-27T20:44:21.805Z,100.00
2023-02-27T20:46:56.538Z,100.00
2023-02-27T20:49:29.300Z,100.00
2023-02-27T20:52:02.310Z,100.00
2023-02-27T20:54:35.223Z,100.00
2023-02-27T20:57:07.766Z,100.00
2023-02-27T20:59:39.054Z,100.00
2023-02-27T21:02:12.573Z,100.00
2023-02-27T21:04:48.709Z,100.00
2023-02-27T21:07:22.644Z,100.00
2023-02-27T21:09:56.221Z,100.00
2023-02-27T21:12:28.812Z,100.00
2023-02-27T21:15:01.075Z,100.00
2023-02-27T21:17:41.002Z,100.00
2023-02-27T21:20:14.731Z,100.00
2023-02-27T21:22:46.380Z,100.00
2023-02-27T21:25:19.209Z,100.00
2023-02-27T21:27:53.091Z,100.00
2023-02-27T21:30:29.812Z,100.00
2023-02-27T21:33:11.610Z,100.00
2023-02-27T21:35:47.568Z,100.00
2023-02-27T21:38:18.216Z,100.00
2023-02-27T21:40:48.332Z,100.00
2023-02-27T21:43:17.893Z,100.00
2023-02-27T21:45:51.926Z,100.00
2023-02-27T21:48:23.069Z,100.00
2023-02-27T21:50:53.126Z,100.00
2023-02-27T21:53:22.749Z,100.00
2023-02-27T21:55:54.870Z,100.00
2023-02-27T21:58:24.760Z,100.00
2023-02-27T22:00:55.199Z,100.00
2023-02-27T22:03:34.394Z,100.00
2023-02-27T22:06:06.410Z,100.00
2023-02-27T22:08:37.159Z,100.00
2023-02-27T22:11:07.843Z,100.00
2023-02-27T22:13:37.837Z,100.00
2023-02-27T22:16:08.416Z,100.00
2023-02-27T22:18:40.291Z,100.00
2023-02-27T22:21:11.686Z,100.00
2023-02-27T22:23:41.587Z,100.00
2023-02-27T22:26:13.526Z,100.00
2023-02-27T22:28:43.378Z,100.00
2023-02-27T22:31:14.597Z,100.00
2023-02-27T22:33:46.787Z,100.00
2023-02-27T22:36:18.207Z,100.00
2023-02-27T22:38:48.774Z,100.00
2023-02-27T22:41:20.006Z,100.00
2023-02-27T22:43:49.841Z,100.00
2023-02-27T22:46:26.151Z,100.00
2023-02-27T22:48:58.008Z,100.00
2023-02-27T22:51:29.039Z,100.00
2023-02-27T22:53:59.821Z,100.00
2023-02-27T22:56:29.847Z,100.00
2023-02-27T22:58:59.740Z,100.00
2023-02-27T23:01:31.107Z,100.00
2023-02-27T23:04:03.373Z,100.00
2023-02-27T23:06:34.916Z,100.00
2023-02-27T23:09:05.396Z,100.00
2023-02-27T23:11:35.419Z,100.00
2023-02-27T23:14:05.217Z,100.00
2023-02-27T23:16:35.440Z,100.00
2023-02-27T23:19:06.545Z,100.00
2023-02-27T23:21:37.440Z,100.00
2023-02-27T23:24:08.085Z,100.00
2023-02-27T23:26:38.518Z,100.00
2023-02-27T23:29:08.574Z,100.00
2023-02-27T23:31:38.947Z,100.00
2023-02-27T23:34:10.101Z,100.00
2023-02-27T23:36:40.989Z,100.00
2023-02-27T23:39:11.016Z,100.00
2023-02-27T23:41:41.425Z,100.00
2023-02-27T23:44:28.353Z,100.00
2023-02-27T23:46:58.637Z,100.00
2023-02-27T23:49:29.935Z,100.00
2023-02-27T23:52:00.019Z,100.00
2023-02-27T23:54:29.730Z,100.00
2023-02-27T23:56:59.810Z,100.00
2023-02-27T23:59:29.812Z,100.00
